Rtm Cartier — 9V2774 — position and weather

sailwx.info

Track history (hours):
 
Tides and Currents Weather Stations Pressure Air Temp Water Temp Dewpoint Dewpoint Depression Visibility Wind Speed Wind Dir Waves Ship Positions

Rtm Cartier

Last reported at 2018-May-21 00:13 UTC. Time now 2018-May-22 21:30 UTC.
Position N 37°54' E 123°06'.

Length 300 m; draft 8.9 m.

Type: Cargo ship. MMSI: 564812000.

Date/timePositionNaut miles runAvg speedWind from/ knotsBaromVisibWave heightAir tempDewpointWater temp
2018-May-21 00:13N 37°54' E 123°06'211.1
2018-May-21 00:00N 37°54' E 123°03'711.2
2018-May-20 23:21N 37°55' E 122°54'411.2
2018-May-20 23:00N 37°56' E 122°49'611.6
2018-May-20 22:30N 37°56' E 122°42'1511.7
2018-May-20 21:11N 37°58' E 122°22'212.0
2018-May-20 21:00N 37°59' E 122°20'612.0
2018-May-20 20:30N 38°00' E 122°12'612.0
2018-May-20 20:00N 38°03' E 122°05'612.0
2018-May-20 19:30N 38°05' E 121°58'611.8
2018-May-20 19:00N 38°08' E 121°52'611.8
2018-May-20 18:30N 38°12' E 121°46'611.6
2018-May-20 18:00N 38°14' E 121°39'611.5
2018-May-20 17:30N 38°16' E 121°32'611.6
2018-May-20 17:00N 38°19' E 121°26'611.6
2018-May-20 16:30N 38°22' E 121°19'611.9
2018-May-20 16:00N 38°25' E 121°13'612.2
2018-May-20 15:29N 38°27' E 121°05'612.2
2018-May-20 15:00N 38°31' E 120°59'712.3
2018-May-20 14:28N 38°34' E 120°52'612.0
2018-May-20 13:59N 38°35' E 120°44'611.8
2018-May-20 13:30N 38°36' E 120°37'611.7
2018-May-20 13:00N 38°37' E 120°30'611.3
2018-May-20 12:30N 38°38' E 120°23'611.3
2018-May-20 11:59N 38°39' E 120°15'511.0
2018-May-20 11:30N 38°40' E 120°09'610.5
2018-May-20 10:57N 38°41' E 120°01'  
2018-May-17 17:18N 38°45' E 119°52'3 9.6
2018-May-17 17:00N 38°45' E 119°56'  
Track history (hours):
 
Tides and Currents Weather Stations Pressure Air Temp Water Temp Dewpoint Dewpoint Depression Visibility Wind Speed Wind Dir Waves Ship Positions

Rtm Cartier

Last reported at 2018-May-21 00:13 UTC. Time now 2018-May-22 21:30 UTC.
Position N 37°54' E 123°06'.

Length 300 m; draft 8.9 m.

Type: Cargo ship. MMSI: 564812000.

Date/timePositionNaut miles runAvg speedWind from/ knotsBaromVisibWave heightAir tempDewpointWater temp
2018-May-21 00:13N 37°54' E 123°06'211.1
2018-May-21 00:00N 37°54' E 123°03'711.2
2018-May-20 23:21N 37°55' E 122°54'411.2
2018-May-20 23:00N 37°56' E 122°49'611.6
2018-May-20 22:30N 37°56' E 122°42'1511.7
2018-May-20 21:11N 37°58' E 122°22'212.0
2018-May-20 21:00N 37°59' E 122°20'612.0
2018-May-20 20:30N 38°00' E 122°12'612.0
2018-May-20 20:00N 38°03' E 122°05'612.0
2018-May-20 19:30N 38°05' E 121°58'611.8
2018-May-20 19:00N 38°08' E 121°52'611.8
2018-May-20 18:30N 38°12' E 121°46'611.6
2018-May-20 18:00N 38°14' E 121°39'611.5
2018-May-20 17:30N 38°16' E 121°32'611.6
2018-May-20 17:00N 38°19' E 121°26'611.6
2018-May-20 16:30N 38°22' E 121°19'611.9
2018-May-20 16:00N 38°25' E 121°13'612.2
2018-May-20 15:29N 38°27' E 121°05'612.2
2018-May-20 15:00N 38°31' E 120°59'712.3
2018-May-20 14:28N 38°34' E 120°52'612.0
2018-May-20 13:59N 38°35' E 120°44'611.8
2018-May-20 13:30N 38°36' E 120°37'611.7
2018-May-20 13:00N 38°37' E 120°30'611.3
2018-May-20 12:30N 38°38' E 120°23'611.3
2018-May-20 11:59N 38°39' E 120°15'511.0
2018-May-20 11:30N 38°40' E 120°09'610.5
2018-May-20 10:57N 38°41' E 120°01'  
2018-May-17 17:18N 38°45' E 119°52'3 9.6
2018-May-17 17:00N 38°45' E 119°56'  

Dump ship's entire track history